createdAt,value
2023-01-31T04:11:51.480Z,3.30
2023-01-31T04:14:21.334Z,4.03
2023-01-31T04:16:49.706Z,4.23
2023-01-31T04:19:18.014Z,4.20
2023-01-31T04:21:46.263Z,3.60
2023-01-31T04:24:14.462Z,3.53
2023-01-31T04:26:42.700Z,3.07
2023-01-31T04:29:12.347Z,3.27
2023-01-31T04:31:41.514Z,2.90
2023-01-31T04:34:10.310Z,3.17
2023-01-31T04:36:38.575Z,3.40
2023-01-31T04:39:06.771Z,2.67
2023-01-31T04:41:35.061Z,3.20
2023-01-31T04:44:03.320Z,2.73
2023-01-31T04:46:32.997Z,3.70
2023-01-31T04:49:01.599Z,2.80
2023-01-31T04:51:29.837Z,2.90
2023-01-31T04:53:58.058Z,3.10
2023-01-31T04:56:26.308Z,3.13
2023-01-31T04:58:54.557Z,2.83
2023-01-31T05:01:22.805Z,3.37
2023-01-31T05:03:52.426Z,3.53
2023-01-31T05:06:20.684Z,3.37
2023-01-31T05:08:48.908Z,3.67
2023-01-31T05:11:17.135Z,3.67
2023-01-31T05:13:45.561Z,3.03
2023-01-31T05:16:13.870Z,3.73
2023-01-31T05:18:42.177Z,3.60
2023-01-31T05:21:12.431Z,2.77
2023-01-31T05:23:40.749Z,4.13
2023-01-31T05:26:09.299Z,3.70
2023-01-31T05:28:37.500Z,3.33
2023-01-31T05:31:08.697Z,3.17
2023-01-31T05:33:37.496Z,2.93
2023-01-31T05:36:06.417Z,3.40
2023-01-31T05:38:36.071Z,3.10
2023-01-31T05:41:04.363Z,3.50
2023-01-31T05:43:32.703Z,3.10
2023-01-31T05:46:01.896Z,3.23
2023-01-31T05:48:30.138Z,3.70
2023-01-31T05:50:58.382Z,3.57
2023-01-31T05:53:26.631Z,3.13
2023-01-31T05:55:56.258Z,3.20
2023-01-31T05:58:24.457Z,2.47
2023-01-31T06:00:56.015Z,3.33
2023-01-31T06:03:24.328Z,3.43
2023-01-31T06:05:52.663Z,3.10
2023-01-31T06:08:20.928Z,2.50
2023-01-31T06:10:49.247Z,3.10
2023-01-31T06:13:18.875Z,3.37
2023-01-31T06:15:47.116Z,3.23
2023-01-31T06:18:15.427Z,3.93
2023-01-31T06:20:43.761Z,3.30
2023-01-31T06:23:11.998Z,2.93
2023-01-31T06:25:40.228Z,3.83
2023-01-31T06:28:08.493Z,2.90
2023-01-31T06:30:38.586Z,3.47
2023-01-31T06:33:06.953Z,3.00
2023-01-31T06:35:35.169Z,3.03
2023-01-31T06:38:03.393Z,3.30
2023-01-31T06:40:31.885Z,3.90
2023-01-31T06:43:00.197Z,3.10
2023-01-31T06:45:28.452Z,2.93
2023-01-31T06:47:58.062Z,2.97
2023-01-31T06:50:26.255Z,3.20
2023-01-31T06:52:54.482Z,3.17
2023-01-31T06:55:22.898Z,2.80
2023-01-31T06:57:51.629Z,2.80
2023-01-31T07:00:20.689Z,3.50
2023-01-31T07:02:49.931Z,2.97
2023-01-31T07:05:20.120Z,3.60
2023-01-31T07:07:49.840Z,2.87
2023-01-31T07:10:18.855Z,3.30
2023-01-31T07:12:47.069Z,2.93
2023-01-31T07:15:15.316Z,3.17
2023-01-31T07:17:44.240Z,3.87
2023-01-31T07:20:13.561Z,3.00
2023-01-31T07:22:43.547Z,3.27
2023-01-31T07:25:11.807Z,3.17
2023-01-31T07:27:40.045Z,3.53
2023-01-31T07:30:09.182Z,5.03
2023-01-31T07:32:37.392Z,3.60
2023-01-31T07:35:06.140Z,3.40
2023-01-31T07:37:34.307Z,2.90
2023-01-31T07:40:05.144Z,4.20
2023-01-31T07:42:33.452Z,3.13
2023-01-31T07:45:13.258Z,2.80
2023-01-31T07:47:49.949Z,2.97
2023-01-31T07:50:18.719Z,3.33
2023-01-31T07:52:49.207Z,4.07
2023-01-31T07:55:19.391Z,4.40
2023-01-31T07:57:47.736Z,3.40
2023-01-31T08:00:31.029Z,3.37
2023-01-31T08:03:16.549Z,2.43
2023-01-31T08:05:47.785Z,3.40
2023-01-31T08:08:16.572Z,2.77
2023-01-31T08:10:47.387Z,2.97
2023-01-31T08:13:15.671Z,3.10
2023-01-31T08:15:43.970Z,2.57
2023-01-31T08:18:12.174Z,2.63
2023-01-31T08:20:41.505Z,2.73
2023-01-31T08:23:09.740Z,2.60
2023-01-31T08:25:37.961Z,2.80
2023-01-31T08:28:07.778Z,2.60
2023-01-31T08:30:37.078Z,2.63
2023-01-31T08:33:05.386Z,2.40
2023-01-31T08:35:33.607Z,2.40
2023-01-31T08:38:15.591Z,2.17
2023-01-31T08:40:44.965Z,2.60
2023-01-31T08:43:14.887Z,2.57
2023-01-31T08:45:43.346Z,1.83
2023-01-31T08:48:11.705Z,2.70
2023-01-31T08:50:40.613Z,3.53
2023-01-31T08:53:09.074Z,2.53
2023-01-31T08:55:38.015Z,2.47
2023-01-31T08:58:06.304Z,2.73
2023-01-31T09:00:35.939Z,2.30
2023-01-31T09:03:04.209Z,2.93
2023-01-31T09:05:33.718Z,2.37
2023-01-31T09:08:01.971Z,2.35
2023-01-31T09:10:30.220Z,2.20
2023-01-31T09:13:00.507Z,2.60
2023-01-31T09:15:28.829Z,2.60
2023-01-31T09:17:58.400Z,2.58
2023-01-31T09:20:26.612Z,2.83
2023-01-31T09:22:54.804Z,2.40
2023-01-31T09:25:37.465Z,2.87
2023-01-31T09:28:10.766Z,3.10
2023-01-31T09:30:39.040Z,2.25
2023-01-31T09:33:08.646Z,2.97
2023-01-31T09:35:36.959Z,2.80
2023-01-31T09:38:05.219Z,3.30
2023-01-31T09:40:37.162Z,3.90
2023-01-31T09:43:06.971Z,3.17
2023-01-31T09:45:38.141Z,2.20
2023-01-31T09:48:14.496Z,3.10
2023-01-31T09:50:48.973Z,2.40
2023-01-31T09:53:21.930Z,2.70
2023-01-31T09:55:57.881Z,2.47
2023-01-31T09:58:34.046Z,3.10
2023-01-31T10:01:10.688Z,3.93
2023-01-31T10:03:52.579Z,3.67
2023-01-31T10:06:24.410Z,2.92
2023-01-31T10:08:58.883Z,2.67
2023-01-31T10:11:36.647Z,2.40
2023-01-31T10:14:19.163Z,2.50
2023-01-31T10:16:58.016Z,2.87
2023-01-31T10:19:33.328Z,2.67
2023-01-31T10:22:08.927Z,2.77
2023-01-31T10:24:42.507Z,2.60
2023-01-31T10:27:17.655Z,3.63
2023-01-31T10:29:51.911Z,2.77
2023-01-31T10:32:27.127Z,2.30
2023-01-31T10:34:59.872Z,2.38
2023-01-31T10:37:33.677Z,2.67
2023-01-31T10:40:05.620Z,2.57
2023-01-31T10:42:36.159Z,2.63
2023-01-31T10:45:17.037Z,2.65
2023-01-31T10:47:51.473Z,2.43
2023-01-31T10:50:30.337Z,2.40
2023-01-31T10:53:15.235Z,3.20
2023-01-31T10:55:57.149Z,2.30
2023-01-31T10:58:25.643Z,2.93
2023-01-31T11:00:55.106Z,2.90
2023-01-31T11:03:24.015Z,2.85
2023-01-31T11:05:55.288Z,2.47
2023-01-31T11:08:35.127Z,2.90
2023-01-31T11:11:09.203Z,2.67
2023-01-31T11:13:37.761Z,2.80
2023-01-31T11:16:10.164Z,2.70
2023-01-31T11:18:44.193Z,2.70
2023-01-31T11:21:21.814Z,2.63
2023-01-31T11:23:51.518Z,2.57
2023-01-31T11:26:32.320Z,2.78
2023-01-31T11:29:02.449Z,2.47
2023-01-31T11:31:34.565Z,5.47
2023-01-31T11:34:04.876Z,2.70
2023-01-31T11:36:42.483Z,2.95
2023-01-31T11:39:28.420Z,3.80
2023-01-31T11:41:57.008Z,2.00
2023-01-31T11:44:25.681Z,2.75
2023-01-31T11:46:57.269Z,2.93
2023-01-31T11:49:32.052Z,3.93
2023-01-31T11:52:04.424Z,3.07
2023-01-31T11:54:35.805Z,2.40
2023-01-31T11:57:14.672Z,2.60
2023-01-31T11:59:43.267Z,4.57
2023-01-31T12:02:27.543Z,3.20
2023-01-31T12:04:56.787Z,3.43
2023-01-31T12:07:30.341Z,3.30
2023-01-31T12:09:58.820Z,3.43
2023-01-31T12:12:32.163Z,3.47
2023-01-31T12:15:02.674Z,2.53
2023-01-31T12:17:33.576Z,4.13
2023-01-31T12:20:28.246Z,7.77
2023-01-31T12:23:07.435Z,2.93
2023-01-31T12:25:48.928Z,5.87
2023-01-31T12:28:28.882Z,3.60
2023-01-31T12:31:08.218Z,4.43
2023-01-31T12:33:47.476Z,2.80
2023-01-31T12:36:30.239Z,3.93
2023-01-31T12:39:23.877Z,3.17
2023-01-31T12:42:05.644Z,3.53
2023-01-31T12:44:46.485Z,2.60
2023-01-31T12:47:56.860Z,2.70
2023-01-31T12:50:32.527Z,2.97
2023-01-31T12:53:33.616Z,4.00
2023-01-31T12:56:24.694Z,2.80
2023-01-31T12:59:13.899Z,2.50
2023-01-31T13:01:49.921Z,3.03
2023-01-31T13:04:32.355Z,2.73
2023-01-31T13:07:04.166Z,3.45
2023-01-31T13:09:34.670Z,2.67
2023-01-31T13:12:09.267Z,3.23
2023-01-31T13:14:41.707Z,2.63
2023-01-31T13:17:13.649Z,2.80
2023-01-31T13:19:46.632Z,3.25
2023-01-31T13:22:19.821Z,2.10
2023-01-31T13:24:53.220Z,2.50
2023-01-31T13:27:27.866Z,2.42
2023-01-31T13:30:01.696Z,2.23
2023-01-31T13:32:35.536Z,1.97
2023-01-31T13:35:12.021Z,5.40
2023-01-31T13:37:43.552Z,3.03
2023-01-31T13:40:20.420Z,3.60
2023-01-31T13:42:51.220Z,2.93
2023-01-31T13:45:24.549Z,2.57
2023-01-31T13:47:57.459Z,2.40
2023-01-31T13:50:35.306Z,3.03
2023-01-31T13:53:07.125Z,3.27
2023-01-31T13:55:39.550Z,3.20
2023-01-31T13:58:17.007Z,3.23
2023-01-31T14:00:46.527Z,3.07
2023-01-31T14:03:16.916Z,2.30
2023-01-31T14:05:59.665Z,2.23
2023-01-31T14:08:40.469Z,2.87
2023-01-31T14:11:35.241Z,2.70
2023-01-31T14:14:30.868Z,2.70
2023-01-31T14:16:59.161Z,2.83
2023-01-31T14:20:09.551Z,3.03
2023-01-31T14:22:41.428Z,4.40
2023-01-31T14:25:15.834Z,3.50
2023-01-31T14:27:47.846Z,5.50
2023-01-31T14:30:38.311Z,5.23
2023-01-31T14:33:25.981Z,3.43
2023-01-31T14:36:36.584Z,3.77
2023-01-31T14:39:38.340Z,4.30
2023-01-31T14:42:28.516Z,4.50
2023-01-31T14:45:12.828Z,4.87
2023-01-31T14:47:56.912Z,3.83
2023-01-31T14:50:46.889Z,4.50
2023-01-31T14:53:36.802Z,4.63
2023-01-31T14:56:18.008Z,3.90
2023-01-31T14:58:47.748Z,4.83
2023-01-31T15:01:21.548Z,4.43
2023-01-31T15:03:54.648Z,4.40
2023-01-31T15:06:26.169Z,4.73
2023-01-31T15:09:19.846Z,5.27
2023-01-31T15:11:50.067Z,4.87
2023-01-31T15:14:36.508Z,5.33
2023-01-31T15:17:23.720Z,4.50
2023-01-31T15:20:14.464Z,4.17
2023-01-31T15:22:43.767Z,4.73
2023-01-31T15:25:24.420Z,4.90
2023-01-31T15:27:54.235Z,4.53
2023-01-31T15:30:23.637Z,5.60
2023-01-31T15:32:56.704Z,6.80
2023-01-31T15:35:31.425Z,5.33
2023-01-31T15:38:04.995Z,5.17
2023-01-31T15:40:33.649Z,7.10
2023-01-31T15:43:23.440Z,7.43
2023-01-31T15:45:52.766Z,7.47
2023-01-31T15:48:22.838Z,9.10
2023-01-31T15:50:54.523Z,9.43
2023-01-31T15:53:24.553Z,10.50
2023-01-31T15:55:56.896Z,9.23
2023-01-31T15:58:28.261Z,8.03
2023-01-31T16:00:59.225Z,6.03
2023-01-31T16:03:30.645Z,8.37
2023-01-31T16:06:01.554Z,11.90
2023-01-31T16:08:33.898Z,8.90
2023-01-31T16:11:04.900Z,10.03
2023-01-31T16:13:34.988Z,9.83
2023-01-31T16:16:04.825Z,7.63
2023-01-31T16:18:33.939Z,10.87
2023-01-31T16:21:15.373Z,7.03
2023-01-31T16:23:44.479Z,8.83
2023-01-31T16:26:15.968Z,10.07
2023-01-31T16:28:46.905Z,8.03
2023-01-31T16:31:17.342Z,7.70
2023-01-31T16:33:51.441Z,7.27
2023-01-31T16:36:27.427Z,7.13
2023-01-31T16:39:02.161Z,8.53
2023-01-31T16:41:45.284Z,8.43
2023-01-31T16:44:16.723Z,8.43
2023-01-31T16:46:47.946Z,7.20
2023-01-31T16:49:23.352Z,6.73
2023-01-31T16:51:56.464Z,6.03
2023-01-31T16:54:26.039Z,5.67
2023-01-31T16:57:22.883Z,6.97
2023-01-31T16:59:52.460Z,6.23
2023-01-31T17:02:25.849Z,6.20
2023-01-31T17:04:56.893Z,7.70
2023-01-31T17:07:30.250Z,5.50
2023-01-31T17:10:00.717Z,6.60
2023-01-31T17:12:30.933Z,6.43
2023-01-31T17:15:03.157Z,6.70
2023-01-31T17:17:37.497Z,7.63
2023-01-31T17:20:06.843Z,6.57
2023-01-31T17:22:36.924Z,6.83
2023-01-31T17:25:15.745Z,8.53
2023-01-31T17:27:44.018Z,7.57
2023-01-31T17:30:13.807Z,7.73
2023-01-31T17:32:44.227Z,8.33
2023-01-31T17:35:25.536Z,7.00
2023-01-31T17:37:55.150Z,6.43
2023-01-31T17:40:23.447Z,6.30
2023-01-31T17:42:55.693Z,8.50
2023-01-31T17:45:24.292Z,9.77
2023-01-31T17:47:52.770Z,9.57
2023-01-31T17:50:22.943Z,8.23
2023-01-31T17:52:51.780Z,6.30
2023-01-31T17:55:24.065Z,6.63
2023-01-31T17:57:52.867Z,8.07
2023-01-31T18:00:22.348Z,7.47
2023-01-31T18:02:52.594Z,6.77
2023-01-31T18:05:30.206Z,6.17
2023-01-31T18:08:06.490Z,6.80
2023-01-31T18:10:36.189Z,8.00
2023-01-31T18:13:04.473Z,8.37
2023-01-31T18:15:32.736Z,6.50
2023-01-31T18:18:01.078Z,6.50
2023-01-31T18:20:29.416Z,5.57
2023-01-31T18:22:57.648Z,6.27
2023-01-31T18:25:25.856Z,6.03
2023-01-31T18:27:55.513Z,6.20
2023-01-31T18:30:23.888Z,5.67
2023-01-31T18:32:52.323Z,6.90
2023-01-31T18:35:21.825Z,7.47
2023-01-31T18:37:50.293Z,6.87
2023-01-31T18:40:18.901Z,7.27
2023-01-31T18:42:47.149Z,7.20
2023-01-31T18:45:16.851Z,7.17
2023-01-31T18:47:45.086Z,6.93
2023-01-31T18:50:13.417Z,6.83
2023-01-31T18:52:43.910Z,6.40
2023-01-31T18:55:12.479Z,9.83
2023-01-31T18:57:40.805Z,9.43
2023-01-31T19:00:10.326Z,8.83
2023-01-31T19:02:40.640Z,9.03
2023-01-31T19:05:09.845Z,8.67
2023-01-31T19:07:40.851Z,8.50
2023-01-31T19:10:10.049Z,9.30
2023-01-31T19:12:39.269Z,9.10
2023-01-31T19:15:09.393Z,9.43
2023-01-31T19:17:39.913Z,9.03
2023-01-31T19:20:09.277Z,10.33
2023-01-31T19:22:37.535Z,10.20
2023-01-31T19:25:09.154Z,9.33
2023-01-31T19:27:37.434Z,10.13
2023-01-31T19:30:06.813Z,9.93
2023-01-31T19:32:35.065Z,9.40
2023-01-31T19:35:04.761Z,11.27
2023-01-31T19:37:33.053Z,9.87
2023-01-31T19:40:02.111Z,10.20
2023-01-31T19:42:30.482Z,10.47
2023-01-31T19:44:58.686Z,14.17
2023-01-31T19:47:26.915Z,12.17
2023-01-31T19:49:55.205Z,17.97
2023-01-31T19:52:25.016Z,15.13
2023-01-31T19:54:54.197Z,13.70
2023-01-31T19:57:22.433Z,9.63
2023-01-31T19:59:50.783Z,10.07
2023-01-31T20:02:19.130Z,9.17
2023-01-31T20:04:47.529Z,9.10
2023-01-31T20:07:15.755Z,9.27
2023-01-31T20:09:45.581Z,9.00
2023-01-31T20:12:13.896Z,9.43
2023-01-31T20:14:42.190Z,8.77
2023-01-31T20:17:10.418Z,9.33
2023-01-31T20:19:38.672Z,8.00
2023-01-31T20:22:06.900Z,8.43
2023-01-31T20:24:35.152Z,8.10
2023-01-31T20:27:05.088Z,8.30
2023-01-31T20:29:33.582Z,7.77
2023-01-31T20:32:02.380Z,7.90
2023-01-31T20:34:30.596Z,7.77
2023-01-31T20:36:58.853Z,7.93
2023-01-31T20:39:27.206Z,7.90
2023-01-31T20:41:57.121Z,7.90
2023-01-31T20:44:26.772Z,7.17
2023-01-31T20:46:55.139Z,7.57
2023-01-31T20:49:24.122Z,7.73
2023-01-31T20:51:52.614Z,7.40
2023-01-31T20:54:20.882Z,8.40
2023-01-31T20:56:49.269Z,7.23
2023-01-31T20:59:17.728Z,7.60
2023-01-31T21:01:47.790Z,7.97
2023-01-31T21:04:16.588Z,8.30
2023-01-31T21:06:44.829Z,8.60
2023-01-31T21:09:13.124Z,7.33
2023-01-31T21:11:41.383Z,8.47
2023-01-31T21:14:09.629Z,8.20
2023-01-31T21:16:37.890Z,7.83
2023-01-31T21:19:07.567Z,7.47
2023-01-31T21:21:35.887Z,7.60
2023-01-31T21:24:04.509Z,7.57
2023-01-31T21:26:32.819Z,8.33
2023-01-31T21:29:02.248Z,8.93
2023-01-31T21:31:31.077Z,9.10
2023-01-31T21:34:04.902Z,8.77
2023-01-31T21:36:36.251Z,8.50
2023-01-31T21:39:04.941Z,8.17
2023-01-31T21:42:01.972Z,8.37
2023-01-31T21:44:30.251Z,8.33
2023-01-31T21:46:58.617Z,8.30
2023-01-31T21:49:26.895Z,8.47
2023-01-31T21:51:56.522Z,8.17
2023-01-31T21:54:24.738Z,7.83
2023-01-31T21:56:53.017Z,6.97
2023-01-31T21:59:21.779Z,8.37
2023-01-31T22:01:51.702Z,8.23
2023-01-31T22:04:21.348Z,8.67
2023-01-31T22:06:49.843Z,8.80
2023-01-31T22:09:19.781Z,8.60
2023-01-31T22:11:50.005Z,9.17
2023-01-31T22:14:18.595Z,7.87
2023-01-31T22:16:46.780Z,8.40
2023-01-31T22:19:15.677Z,8.27
2023-01-31T22:21:44.138Z,8.10
2023-01-31T22:24:12.577Z,7.37
2023-01-31T22:26:44.020Z,7.10
2023-01-31T22:29:15.303Z,7.57
2023-01-31T22:31:44.236Z,6.90
2023-01-31T22:34:14.992Z,7.47
2023-01-31T22:36:43.681Z,7.40
2023-01-31T22:39:13.146Z,7.17
2023-01-31T22:41:44.672Z,8.20
2023-01-31T22:44:12.966Z,6.83
2023-01-31T22:46:41.359Z,7.33
2023-01-31T22:49:09.705Z,8.03
2023-01-31T22:51:37.969Z,9.47
2023-01-31T22:54:06.265Z,8.37
2023-01-31T22:56:36.186Z,7.80
2023-01-31T22:59:07.125Z,8.63
2023-01-31T23:01:37.356Z,9.00
2023-01-31T23:04:08.382Z,11.93
